sensor_id;sensor_type;location;lat;lon;timestamp;pressure;altitude;pressure_sealevel;temperature;humidity
35489;BME280;21602;55.670;37.578;2024-02-26T00:00:00;100245.53;;;0.16;60.47
35489;BME280;21602;55.670;37.578;2024-02-26T00:02:26;100240.56;;;0.13;60.01
35489;BME280;21602;55.670;37.578;2024-02-26T00:04:51;100233.50;;;0.13;60.41
35489;BME280;21602;55.670;37.578;2024-02-26T00:07:17;100240.97;;;0.08;60.25
35489;BME280;21602;55.670;37.578;2024-02-26T00:09:43;100232.28;;;0.08;60.09
35489;BME280;21602;55.670;37.578;2024-02-26T00:12:09;100240.31;;;0.06;60.13
35489;BME280;21602;55.670;37.578;2024-02-26T00:14:35;100238.50;;;0.07;60.33
35489;BME280;21602;55.670;37.578;2024-02-26T00:17:02;100236.72;;;0.07;60.16
35489;BME280;21602;55.670;37.578;2024-02-26T00:19:28;100226.88;;;0.09;60.35
35489;BME280;21602;55.670;37.578;2024-02-26T00:21:54;100230.19;;;0.11;60.65
35489;BME280;21602;55.670;37.578;2024-02-26T00:24:21;100229.50;;;0.09;60.39
35489;BME280;21602;55.670;37.578;2024-02-26T00:26:46;100220.97;;;0.07;60.27
35489;BME280;21602;55.670;37.578;2024-02-26T00:29:18;100231.22;;;0.01;60.40
35489;BME280;21602;55.670;37.578;2024-02-26T00:31:45;100229.56;;;-0.10;60.43
35489;BME280;21602;55.670;37.578;2024-02-26T00:34:11;100227.09;;;-0.12;60.50
35489;BME280;21602;55.670;37.578;2024-02-26T00:36:36;100235.13;;;-0.13;60.51
35489;BME280;21602;55.670;37.578;2024-02-26T00:39:02;100225.31;;;-0.11;60.75
35489;BME280;21602;55.670;37.578;2024-02-26T00:41:29;100225.03;;;-0.08;60.70
35489;BME280;21602;55.670;37.578;2024-02-26T00:43:55;100212.75;;;-0.17;60.70
35489;BME280;21602;55.670;37.578;2024-02-26T00:46:20;100222.97;;;-0.14;60.70
35489;BME280;21602;55.670;37.578;2024-02-26T00:48:46;100228.50;;;-0.17;60.63
35489;BME280;21602;55.670;37.578;2024-02-26T00:51:12;100219.00;;;-0.18;60.64
35489;BME280;21602;55.670;37.578;2024-02-26T00:53:38;100225.72;;;-0.16;60.69
35489;BME280;21602;55.670;37.578;2024-02-26T00:56:04;100223.25;;;-0.17;60.62
35489;BME280;21602;55.670;37.578;2024-02-26T00:58:29;100224.25;;;-0.18;60.82
35489;BME280;21602;55.670;37.578;2024-02-26T01:00:55;100210.81;;;-0.15;60.93
35489;BME280;21602;55.670;37.578;2024-02-26T01:03:21;100217.59;;;-0.13;60.46
35489;BME280;21602;55.670;37.578;2024-02-26T01:05:47;100213.00;;;-0.11;60.36
35489;BME280;21602;55.670;37.578;2024-02-26T01:08:13;100217.81;;;-0.06;60.51
35489;BME280;21602;55.670;37.578;2024-02-26T01:10:38;100219.63;;;-0.07;60.53
35489;BME280;21602;55.670;37.578;2024-02-26T01:13:04;100216.34;;;-0.09;60.31
35489;BME280;21602;55.670;37.578;2024-02-26T01:15:30;100214.13;;;-0.13;60.24
35489;BME280;21602;55.670;37.578;2024-02-26T01:17:55;100220.47;;;-0.16;60.50
35489;BME280;21602;55.670;37.578;2024-02-26T01:20:21;100219.81;;;-0.18;60.35
35489;BME280;21602;55.670;37.578;2024-02-26T01:22:47;100221.34;;;-0.25;60.33
35489;BME280;21602;55.670;37.578;2024-02-26T01:25:13;100228.13;;;-0.32;60.42
35489;BME280;21602;55.670;37.578;2024-02-26T01:27:39;100217.50;;;-0.31;60.27
35489;BME280;21602;55.670;37.578;2024-02-26T01:30:06;100222.59;;;-0.29;60.61
35489;BME280;21602;55.670;37.578;2024-02-26T01:32:33;100213.63;;;-0.27;60.30
35489;BME280;21602;55.670;37.578;2024-02-26T01:34:58;100219.69;;;-0.26;60.32
35489;BME280;21602;55.670;37.578;2024-02-26T01:37:24;100212.63;;;-0.26;60.45
35489;BME280;21602;55.670;37.578;2024-02-26T01:39:50;100212.38;;;-0.22;60.71
35489;BME280;21602;55.670;37.578;2024-02-26T01:42:15;100210.03;;;-0.26;60.17
35489;BME280;21602;55.670;37.578;2024-02-26T01:44:41;100206.97;;;-0.21;60.36
35489;BME280;21602;55.670;37.578;2024-02-26T01:47:11;100208.50;;;-0.18;60.23
35489;BME280;21602;55.670;37.578;2024-02-26T01:49:37;100211.63;;;-0.15;60.50
35489;BME280;21602;55.670;37.578;2024-02-26T01:52:04;100206.38;;;-0.15;60.23
35489;BME280;21602;55.670;37.578;2024-02-26T01:54:36;100202.53;;;-0.20;60.13
35489;BME280;21602;55.670;37.578;2024-02-26T01:57:03;100208.34;;;-0.17;60.31
35489;BME280;21602;55.670;37.578;2024-02-26T01:59:30;100211.50;;;-0.13;60.25
35489;BME280;21602;55.670;37.578;2024-02-26T02:01:58;100201.84;;;-0.13;59.84
35489;BME280;21602;55.670;37.578;2024-02-26T02:04:27;100203.91;;;-0.16;60.08
35489;BME280;21602;55.670;37.578;2024-02-26T02:06:53;100199.25;;;-0.22;59.95
35489;BME280;21602;55.670;37.578;2024-02-26T02:09:19;100196.34;;;-0.29;60.19
35489;BME280;21602;55.670;37.578;2024-02-26T02:11:46;100200.38;;;-0.35;60.16
35489;BME280;21602;55.670;37.578;2024-02-26T02:14:14;100199.41;;;-0.34;60.08
35489;BME280;21602;55.670;37.578;2024-02-26T02:16:40;100203.72;;;-0.42;60.04
35489;BME280;21602;55.670;37.578;2024-02-26T02:19:06;100200.41;;;-0.44;60.39
35489;BME280;21602;55.670;37.578;2024-02-26T02:21:32;100192.69;;;-0.46;60.37
35489;BME280;21602;55.670;37.578;2024-02-26T02:23:57;100200.25;;;-0.43;60.50
35489;BME280;21602;55.670;37.578;2024-02-26T02:26:23;100201.22;;;-0.44;60.51
35489;BME280;21602;55.670;37.578;2024-02-26T02:28:49;100197.22;;;-0.48;60.45
35489;BME280;21602;55.670;37.578;2024-02-26T02:31:15;100198.19;;;-0.49;60.33
35489;BME280;21602;55.670;37.578;2024-02-26T02:33:41;100196.56;;;-0.60;60.10
35489;BME280;21602;55.670;37.578;2024-02-26T02:36:07;100193.69;;;-0.57;60.56
35489;BME280;21602;55.670;37.578;2024-02-26T02:38:41;100195.03;;;-0.53;60.39
35489;BME280;21602;55.670;37.578;2024-02-26T02:41:15;100192.81;;;-0.57;60.25
35489;BME280;21602;55.670;37.578;2024-02-26T02:43:41;100193.53;;;-0.55;60.49
35489;BME280;21602;55.670;37.578;2024-02-26T02:46:07;100192.31;;;-0.61;60.24
35489;BME280;21602;55.670;37.578;2024-02-26T02:48:32;100191.06;;;-0.66;60.52
35489;BME280;21602;55.670;37.578;2024-02-26T02:50:58;100188.56;;;-0.68;60.64
35489;BME280;21602;55.670;37.578;2024-02-26T02:53:24;100190.22;;;-0.67;60.72
35489;BME280;21602;55.670;37.578;2024-02-26T02:55:49;100196.16;;;-0.65;60.54
35489;BME280;21602;55.670;37.578;2024-02-26T02:58:16;100195.34;;;-0.65;60.70
35489;BME280;21602;55.670;37.578;2024-02-26T03:00:41;100196.84;;;-0.63;60.49
35489;BME280;21602;55.670;37.578;2024-02-26T03:03:07;100195.06;;;-0.72;60.92
35489;BME280;21602;55.670;37.578;2024-02-26T03:05:33;100193.56;;;-0.74;60.86
35489;BME280;21602;55.670;37.578;2024-02-26T03:07:59;100185.81;;;-0.76;60.58
35489;BME280;21602;55.670;37.578;2024-02-26T03:10:25;100186.38;;;-0.72;60.92
35489;BME280;21602;55.670;37.578;2024-02-26T03:12:50;100187.34;;;-0.73;60.73
35489;BME280;21602;55.670;37.578;2024-02-26T03:15:16;100189.00;;;-0.72;60.85
35489;BME280;21602;55.670;37.578;2024-02-26T03:17:42;100186.38;;;-0.72;60.92
35489;BME280;21602;55.670;37.578;2024-02-26T03:20:08;100189.28;;;-0.75;60.75
35489;BME280;21602;55.670;37.578;2024-02-26T03:22:35;100184.72;;;-0.73;60.82
35489;BME280;21602;55.670;37.578;2024-02-26T03:25:00;100191.34;;;-0.79;60.53
35489;BME280;21602;55.670;37.578;2024-02-26T03:27:26;100175.22;;;-0.84;60.74
35489;BME280;21602;55.670;37.578;2024-02-26T03:29:52;100173.56;;;-0.85;60.98
35489;BME280;21602;55.670;37.578;2024-02-26T03:32:18;100170.66;;;-0.92;60.97
35489;BME280;21602;55.670;37.578;2024-02-26T03:34:44;100180.31;;;-0.92;61.37
35489;BME280;21602;55.670;37.578;2024-02-26T03:37:10;100181.88;;;-0.99;61.32
35489;BME280;21602;55.670;37.578;2024-02-26T03:39:36;100176.19;;;-1.05;61.47
35489;BME280;21602;55.670;37.578;2024-02-26T03:42:03;100173.28;;;-1.01;61.54
35489;BME280;21602;55.670;37.578;2024-02-26T03:44:28;100182.81;;;-1.00;61.40
35489;BME280;21602;55.670;37.578;2024-02-26T03:46:54;100171.91;;;-1.06;61.67
35489;BME280;21602;55.670;37.578;2024-02-26T03:49:21;100174.94;;;-1.10;61.61
35489;BME280;21602;55.670;37.578;2024-02-26T03:51:48;100178.69;;;-1.13;62.13
35489;BME280;21602;55.670;37.578;2024-02-26T03:54:13;100179.50;;;-1.12;61.77
35489;BME280;21602;55.670;37.578;2024-02-26T03:56:39;100171.25;;;-1.17;62.13
35489;BME280;21602;55.670;37.578;2024-02-26T03:59:05;100184.34;;;-1.27;62.05
35489;BME280;21602;55.670;37.578;2024-02-26T04:01:31;100182.69;;;-1.28;62.33
35489;BME280;21602;55.670;37.578;2024-02-26T04:03:57;100181.97;;;-1.30;62.45
35489;BME280;21602;55.670;37.578;2024-02-26T04:06:22;100177.56;;;-1.30;62.58
35489;BME280;21602;55.670;37.578;2024-02-26T04:08:48;100188.19;;;-1.21;62.49
35489;BME280;21602;55.670;37.578;2024-02-26T04:11:14;100183.09;;;-1.23;62.61
35489;BME280;21602;55.670;37.578;2024-02-26T04:13:43;100185.72;;;-1.23;62.67
35489;BME280;21602;55.670;37.578;2024-02-26T04:16:11;100181.41;;;-1.24;63.10
35489;BME280;21602;55.670;37.578;2024-02-26T04:18:37;100181.41;;;-1.24;62.98
35489;BME280;21602;55.670;37.578;2024-02-26T04:21:04;100183.09;;;-1.23;62.87
35489;BME280;21602;55.670;37.578;2024-02-26T04:23:31;100183.94;;;-1.22;62.84
35489;BME280;21602;55.670;37.578;2024-02-26T04:25:57;100191.63;;;-1.21;62.82
35489;BME280;21602;55.670;37.578;2024-02-26T04:28:23;100190.00;;;-1.22;62.98
35489;BME280;21602;55.670;37.578;2024-02-26T04:30:51;100189.16;;;-1.22;63.30
35489;BME280;21602;55.670;37.578;2024-02-26T04:33:17;100187.22;;;-1.20;63.41
35489;BME280;21602;55.670;37.578;2024-02-26T04:35:43;100183.94;;;-1.22;63.44
35489;BME280;21602;55.670;37.578;2024-02-26T04:38:09;100186.41;;;-1.21;63.40
35489;BME280;21602;55.670;37.578;2024-02-26T04:40:35;100191.63;;;-1.21;63.43
35489;BME280;21602;55.670;37.578;2024-02-26T04:43:01;100188.34;;;-1.23;63.84
35489;BME280;21602;55.670;37.578;2024-02-26T04:45:26;100182.81;;;-1.20;63.74
35489;BME280;21602;55.670;37.578;2024-02-26T04:47:53;100182.69;;;-1.18;63.70
35489;BME280;21602;55.670;37.578;2024-02-26T04:50:19;100186.13;;;-1.27;64.00
35489;BME280;21602;55.670;37.578;2024-02-26T04:52:45;100181.16;;;-1.31;63.77
35489;BME280;21602;55.670;37.578;2024-02-26T04:55:11;100183.34;;;-1.36;64.17
35489;BME280;21602;55.670;37.578;2024-02-26T04:57:36;100185.16;;;-1.36;64.39
35489;BME280;21602;55.670;37.578;2024-02-26T05:00:04;100182.66;;;-1.38;64.30
35489;BME280;21602;55.670;37.578;2024-02-26T05:02:30;100183.91;;;-1.42;64.55
35489;BME280;21602;55.670;37.578;2024-02-26T05:04:59;100188.31;;;-1.42;64.83
35489;BME280;21602;55.670;37.578;2024-02-26T05:07:24;100173.28;;;-1.40;64.79
35489;BME280;21602;55.670;37.578;2024-02-26T05:09:53;100177.13;;;-1.44;65.19
35489;BME280;21602;55.670;37.578;2024-02-26T05:12:18;100183.34;;;-1.45;64.96
35489;BME280;21602;55.670;37.578;2024-02-26T05:14:44;100174.25;;;-1.41;65.38
35489;BME280;21602;55.670;37.578;2024-02-26T05:17:10;100169.44;;;-1.36;64.87
35489;BME280;21602;55.670;37.578;2024-02-26T05:19:35;100184.59;;;-1.30;65.39
35489;BME280;21602;55.670;37.578;2024-02-26T05:22:01;100170.13;;;-1.24;64.92
35489;BME280;21602;55.670;37.578;2024-02-26T05:24:27;100178.38;;;-1.19;65.00
35489;BME280;21602;55.670;37.578;2024-02-26T05:26:53;100188.47;;;-1.24;65.19
35489;BME280;21602;55.670;37.578;2024-02-26T05:29:19;100186.81;;;-1.25;65.19
35489;BME280;21602;55.670;37.578;2024-02-26T05:31:45;100176.88;;;-1.22;65.19
35489;BME280;21602;55.670;37.578;2024-02-26T05:34:11;100167.91;;;-1.29;65.33
35489;BME280;21602;55.670;37.578;2024-02-26T05:36:37;100177.88;;;-1.23;65.40
35489;BME280;21602;55.670;37.578;2024-02-26T05:39:02;100170.94;;;-1.14;65.42
35489;BME280;21602;55.670;37.578;2024-02-26T05:41:29;100165.84;;;-1.16;65.40
35489;BME280;21602;55.670;37.578;2024-02-26T05:43:55;100171.81;;;-1.14;65.22
35489;BME280;21602;55.670;37.578;2024-02-26T05:46:21;100175.34;;;-1.15;65.40
35489;BME280;21602;55.670;37.578;2024-02-26T05:48:51;100175.50;;;-1.16;65.43
35489;BME280;21602;55.670;37.578;2024-02-26T05:51:17;100175.34;;;-1.15;65.48
35489;BME280;21602;55.670;37.578;2024-02-26T05:53:44;100175.09;;;-1.12;65.55
35489;BME280;21602;55.670;37.578;2024-02-26T05:56:10;100179.91;;;-1.17;65.33
35489;BME280;21602;55.670;37.578;2024-02-26T05:58:35;100181.56;;;-1.16;65.48
35489;BME280;21602;55.670;37.578;2024-02-26T06:01:01;100182.97;;;-1.12;65.73
35489;BME280;21602;55.670;37.578;2024-02-26T06:03:27;100186.66;;;-1.14;65.87
35489;BME280;21602;55.670;37.578;2024-02-26T06:05:53;100187.53;;;-1.14;65.58
35489;BME280;21602;55.670;37.578;2024-02-26T06:08:19;100181.97;;;-1.11;65.70
35489;BME280;21602;55.670;37.578;2024-02-26T06:10:44;100171.25;;;-1.08;65.88
35489;BME280;21602;55.670;37.578;2024-02-26T06:13:11;100182.81;;;-1.00;65.86
35489;BME280;21602;55.670;37.578;2024-02-26T06:15:37;100192.75;;;-0.94;65.79
35489;BME280;21602;55.670;37.578;2024-02-26T06:18:03;100177.69;;;-0.83;65.69
35489;BME280;21602;55.670;37.578;2024-02-26T06:20:29;100181.44;;;-0.75;65.55
35489;BME280;21602;55.670;37.578;2024-02-26T06:22:54;100184.97;;;-0.67;65.54
35489;BME280;21602;55.670;37.578;2024-02-26T06:25:20;100186.66;;;-0.66;65.50
35489;BME280;21602;55.670;37.578;2024-02-26T06:27:46;100177.81;;;-0.65;65.40
35489;BME280;21602;55.670;37.578;2024-02-26T06:30:12;100188.03;;;-0.71;65.33
35489;BME280;21602;55.670;37.578;2024-02-26T06:32:38;100180.88;;;-0.79;65.52
35489;BME280;21602;55.670;37.578;2024-02-26T06:35:04;100176.88;;;-0.83;65.72
35489;BME280;21602;55.670;37.578;2024-02-26T06:37:34;100174.50;;;-0.86;65.61
35489;BME280;21602;55.670;37.578;2024-02-26T06:40:01;100186.69;;;-0.85;65.71
35489;BME280;21602;55.670;37.578;2024-02-26T06:42:29;100171.34;;;-0.80;65.82
35489;BME280;21602;55.670;37.578;2024-02-26T06:44:56;100177.53;;;-0.81;65.58
35489;BME280;21602;55.670;37.578;2024-02-26T06:47:22;100189.72;;;-0.80;65.83
35489;BME280;21602;55.670;37.578;2024-02-26T06:49:48;100193.00;;;-0.78;66.03
35489;BME280;21602;55.670;37.578;2024-02-26T06:52:16;100195.06;;;-0.72;65.98
35489;BME280;21602;55.670;37.578;2024-02-26T06:54:42;100185.41;;;-0.62;65.90
35489;BME280;21602;55.670;37.578;2024-02-26T06:57:08;100187.16;;;-0.53;65.42
35489;BME280;21602;55.670;37.578;2024-02-26T06:59:36;100193.25;;;-0.52;65.60
35489;BME280;21602;55.670;37.578;2024-02-26T07:02:02;100189.09;;;-0.55;65.39
35489;BME280;21602;55.670;37.578;2024-02-26T07:04:28;100186.06;;;-0.50;65.51
35489;BME280;21602;55.670;37.578;2024-02-26T07:06:54;100181.25;;;-0.55;65.55
35489;BME280;21602;55.670;37.578;2024-02-26T07:09:20;100186.06;;;-0.50;65.12
35489;BME280;21602;55.670;37.578;2024-02-26T07:11:46;100183.84;;;-0.45;65.66
35489;BME280;21602;55.670;37.578;2024-02-26T07:14:12;100176.34;;;-0.30;65.15
35489;BME280;21602;55.670;37.578;2024-02-26T07:16:37;100171.78;;;-0.28;65.04
35489;BME280;21602;55.670;37.578;2024-02-26T07:19:04;100174.13;;;-0.35;64.78
35489;BME280;21602;55.670;37.578;2024-02-26T07:21:29;100168.31;;;-0.29;64.97
35489;BME280;21602;55.670;37.578;2024-02-26T07:23:58;100167.38;;;-0.28;64.90
35489;BME280;21602;55.670;37.578;2024-02-26T07:26:24;100168.84;;;-0.25;65.15
35489;BME280;21602;55.670;37.578;2024-02-26T07:28:53;100169.56;;;-0.23;65.27
35489;BME280;21602;55.670;37.578;2024-02-26T07:31:19;100169.56;;;-0.23;64.81
35489;BME280;21602;55.670;37.578;2024-02-26T07:33:47;100171.50;;;-0.35;65.15
35489;BME280;21602;55.670;37.578;2024-02-26T07:36:16;100167.88;;;-0.24;65.59
35489;BME280;21602;55.670;37.578;2024-02-26T07:38:44;100177.19;;;-0.02;65.30
35489;BME280;21602;55.670;37.578;2024-02-26T07:41:11;100176.75;;;0.03;64.70
35489;BME280;21602;55.670;37.578;2024-02-26T07:43:37;100170.91;;;0.09;64.89
35489;BME280;21602;55.670;37.578;2024-02-26T07:46:03;100176.38;;;0.25;64.50
35489;BME280;21602;55.670;37.578;2024-02-26T07:48:29;100171.25;;;0.23;64.19
35489;BME280;21602;55.670;37.578;2024-02-26T07:50:55;100180.38;;;0.29;64.13
35489;BME280;21602;55.670;37.578;2024-02-26T07:53:20;100174.28;;;0.29;63.85
35489;BME280;21602;55.670;37.578;2024-02-26T07:55:46;100177.81;;;0.37;63.66
35489;BME280;21602;55.670;37.578;2024-02-26T07:58:12;100174.25;;;0.38;63.90
35489;BME280;21602;55.670;37.578;2024-02-26T08:00:39;100179.28;;;0.49;63.66
35489;BME280;21602;55.670;37.578;2024-02-26T08:03:04;100173.72;;;0.53;64.26
35489;BME280;21602;55.670;37.578;2024-02-26T08:05:30;100187.53;;;0.55;63.34
35489;BME280;21602;55.670;37.578;2024-02-26T08:07:56;100178.13;;;0.52;63.40
35489;BME280;21602;55.670;37.578;2024-02-26T08:10:22;100177.31;;;0.51;63.48
35489;BME280;21602;55.670;37.578;2024-02-26T08:12:48;100174.94;;;0.58;63.33
35489;BME280;21602;55.670;37.578;2024-02-26T08:15:13;100181.09;;;0.67;63.41
35489;BME280;21602;55.670;37.578;2024-02-26T08:17:39;100174.34;;;0.64;63.40
35489;BME280;21602;55.670;37.578;2024-02-26T08:20:05;100167.44;;;0.81;63.97
35489;BME280;21602;55.670;37.578;2024-02-26T08:22:31;100181.16;;;0.93;63.06
35489;BME280;21602;55.670;37.578;2024-02-26T08:24:58;100175.00;;;0.84;62.57
35489;BME280;21602;55.670;37.578;2024-02-26T08:27:24;100175.81;;;0.85;62.94
35489;BME280;21602;55.670;37.578;2024-02-26T08:29:50;100162.69;;;0.85;63.31
35489;BME280;21602;55.670;37.578;2024-02-26T08:32:16;100165.75;;;0.80;62.79
35489;BME280;21602;55.670;37.578;2024-02-26T08:34:44;100169.38;;;0.79;62.82
35489;BME280;21602;55.670;37.578;2024-02-26T08:37:10;100166.66;;;0.71;63.32
35489;BME280;21602;55.670;37.578;2024-02-26T08:39:40;100164.03;;;0.71;63.29
35489;BME280;21602;55.670;37.578;2024-02-26T08:42:06;100151.06;;;0.87;62.82
35489;BME280;21602;55.670;37.578;2024-02-26T08:44:32;100149.25;;;1.06;63.04
35489;BME280;21602;55.670;37.578;2024-02-26T08:46:58;100146.06;;;1.20;62.30
35489;BME280;21602;55.670;37.578;2024-02-26T08:49:24;100143.06;;;1.41;62.44
35489;BME280;21602;55.670;37.578;2024-02-26T08:51:50;100138.13;;;1.38;62.22
35489;BME280;21602;55.670;37.578;2024-02-26T08:54:15;100139.44;;;1.42;62.16
35489;BME280;21602;55.670;37.578;2024-02-26T08:56:41;100140.28;;;1.42;62.03
35489;BME280;21602;55.670;37.578;2024-02-26T08:59:09;100145.91;;;1.47;62.13
35489;BME280;21602;55.670;37.578;2024-02-26T09:01:36;100145.28;;;1.53;61.42
35489;BME280;21602;55.670;37.578;2024-02-26T09:04:02;100148.75;;;1.54;61.72
35489;BME280;21602;55.670;37.578;2024-02-26T09:06:30;100149.28;;;1.58;61.80
35489;BME280;21602;55.670;37.578;2024-02-26T09:08:56;100151.94;;;1.66;61.80
35489;BME280;21602;55.670;37.578;2024-02-26T09:11:24;100142.84;;;1.60;61.79
35489;BME280;21602;55.670;37.578;2024-02-26T09:13:49;100139.97;;;1.71;62.00
35489;BME280;21602;55.670;37.578;2024-02-26T09:16:15;100147.75;;;1.89;61.64
35489;BME280;21602;55.670;37.578;2024-02-26T09:18:41;100150.25;;;1.91;61.24
35489;BME280;21602;55.670;37.578;2024-02-26T09:21:07;100144.59;;;1.77;61.54
35489;BME280;21602;55.670;37.578;2024-02-26T09:23:33;100136.13;;;1.66;61.72
35489;BME280;21602;55.670;37.578;2024-02-26T09:26:05;100139.41;;;1.60;61.92
35489;BME280;21602;55.670;37.578;2024-02-26T09:28:33;100137.19;;;1.47;61.90
35489;BME280;21602;55.670;37.578;2024-02-26T09:31:07;100136.69;;;1.43;62.06
35489;BME280;21602;55.670;37.578;2024-02-26T09:33:36;100138.53;;;1.51;62.49
35489;BME280;21602;55.670;37.578;2024-02-26T09:36:04;100139.69;;;1.57;62.30
35489;BME280;21602;55.670;37.578;2024-02-26T09:38:32;100137.41;;;1.53;62.00
35489;BME280;21602;55.670;37.578;2024-02-26T09:41:05;100138.75;;;1.66;62.12
35489;BME280;21602;55.670;37.578;2024-02-26T09:43:40;100143.66;;;1.87;61.78
35489;BME280;21602;55.670;37.578;2024-02-26T09:46:09;100144.88;;;2.00;61.51
35489;BME280;21602;55.670;37.578;2024-02-26T09:48:37;100138.97;;;2.07;61.65
35489;BME280;21602;55.670;37.578;2024-02-26T09:51:04;100140.47;;;2.09;61.34
35489;BME280;21602;55.670;37.578;2024-02-26T09:53:30;100150.16;;;2.09;61.06
35489;BME280;21602;55.670;37.578;2024-02-26T09:56:00;100141.94;;;2.12;61.09
35489;BME280;21602;55.670;37.578;2024-02-26T09:58:32;100142.06;;;2.02;61.14
35489;BME280;21602;55.670;37.578;2024-02-26T10:01:00;100140.22;;;1.94;61.16
35489;BME280;21602;55.670;37.578;2024-02-26T10:03:34;100141.88;;;1.95;61.42
35489;BME280;21602;55.670;37.578;2024-02-26T10:06:07;100136.94;;;1.92;61.02
35489;BME280;21602;55.670;37.578;2024-02-26T10:08:35;100138.53;;;1.85;61.24
35489;BME280;21602;55.670;37.578;2024-02-26T10:11:01;100138.97;;;1.72;61.01
35489;BME280;21602;55.670;37.578;2024-02-26T10:13:27;100134.59;;;1.81;61.42
35489;BME280;21602;55.670;37.578;2024-02-26T10:15:52;100137.44;;;1.96;61.33
35489;BME280;21602;55.670;37.578;2024-02-26T10:18:18;100130.78;;;1.84;60.94
35489;BME280;21602;55.670;37.578;2024-02-26T10:21:01;100134.47;;;1.91;60.72
35489;BME280;21602;55.670;37.578;2024-02-26T10:23:27;100132.97;;;1.88;61.40
35489;BME280;21602;55.670;37.578;2024-02-26T10:25:55;100136.41;;;1.89;61.04
35489;BME280;21602;55.670;37.578;2024-02-26T10:28:22;100123.75;;;1.92;61.32
35489;BME280;21602;55.670;37.578;2024-02-26T10:30:52;100120.97;;;1.94;61.34
35489;BME280;21602;55.670;37.578;2024-02-26T10:33:18;100131.66;;;1.92;61.36
35489;BME280;21602;55.670;37.578;2024-02-26T10:35:47;100120.13;;;1.93;61.27
35489;BME280;21602;55.670;37.578;2024-02-26T10:38:13;100120.81;;;1.95;61.28
35489;BME280;21602;55.670;37.578;2024-02-26T10:40:42;100123.31;;;2.05;61.18
35489;BME280;21602;55.670;37.578;2024-02-26T10:43:08;100118.38;;;2.02;60.66
35489;BME280;21602;55.670;37.578;2024-02-26T10:45:34;100126.56;;;1.99;61.11
35489;BME280;21602;55.670;37.578;2024-02-26T10:48:02;100127.03;;;1.86;61.16
35489;BME280;21602;55.670;37.578;2024-02-26T10:50:28;100122.38;;;1.80;61.37
35489;BME280;21602;55.670;37.578;2024-02-26T10:52:55;100126.81;;;1.79;61.10
35489;BME280;21602;55.670;37.578;2024-02-26T10:55:22;100118.44;;;1.84;61.37
35489;BME280;21602;55.670;37.578;2024-02-26T10:57:52;100116.56;;;2.02;61.55
35489;BME280;21602;55.670;37.578;2024-02-26T11:00:18;100114.94;;;2.10;61.57
35489;BME280;21602;55.670;37.578;2024-02-26T11:02:45;100102.47;;;2.20;61.68
35489;BME280;21602;55.670;37.578;2024-02-26T11:05:12;100102.41;;;2.03;60.90
35489;BME280;21602;55.670;37.578;2024-02-26T11:07:38;100106.66;;;1.96;60.79
35489;BME280;21602;55.670;37.578;2024-02-26T11:10:06;100096.78;;;1.98;61.06
35489;BME280;21602;55.670;37.578;2024-02-26T11:12:34;100096.44;;;1.93;60.80
35489;BME280;21602;55.670;37.578;2024-02-26T11:15:03;100092.13;;;1.84;60.96
35489;BME280;21602;55.670;37.578;2024-02-26T11:17:29;100091.81;;;1.87;60.91
35489;BME280;21602;55.670;37.578;2024-02-26T11:20:01;100095.94;;;1.90;60.81
35489;BME280;21602;55.670;37.578;2024-02-26T11:22:31;100098.75;;;1.96;60.83
35489;BME280;21602;55.670;37.578;2024-02-26T11:24:57;100092.81;;;1.94;60.67
35489;BME280;21602;55.670;37.578;2024-02-26T11:27:26;100095.00;;;2.07;61.00
35489;BME280;21602;55.670;37.578;2024-02-26T11:29:56;100094.53;;;2.12;60.84
35489;BME280;21602;55.670;37.578;2024-02-26T11:32:23;100099.97;;;2.18;60.92
35489;BME280;21602;55.670;37.578;2024-02-26T11:34:49;100092.72;;;2.12;60.86
35489;BME280;21602;55.670;37.578;2024-02-26T11:37:16;100096.81;;;2.07;60.92
35489;BME280;21602;55.670;37.578;2024-02-26T11:39:43;100085.50;;;2.14;60.85
35489;BME280;21602;55.670;37.578;2024-02-26T11:42:14;100094.91;;;2.25;61.42
35489;BME280;21602;55.670;37.578;2024-02-26T11:44:41;100079.09;;;2.33;61.95
35489;BME280;21602;55.670;37.578;2024-02-26T11:47:18;100080.09;;;2.40;60.90
35489;BME280;21602;55.670;37.578;2024-02-26T11:49:44;100082.72;;;2.32;60.44
35489;BME280;21602;55.670;37.578;2024-02-26T11:52:10;100074.31;;;2.28;60.43
35489;BME280;21602;55.670;37.578;2024-02-26T11:54:49;100083.38;;;2.34;60.33
35489;BME280;21602;55.670;37.578;2024-02-26T11:57:27;100076.16;;;2.44;60.48
35489;BME280;21602;55.670;37.578;2024-02-26T12:00:10;100076.50;;;2.58;60.66
35489;BME280;21602;55.670;37.578;2024-02-26T12:02:46;100077.81;;;2.53;60.20
35489;BME280;21602;55.670;37.578;2024-02-26T12:05:15;100069.88;;;2.45;60.40
35489;BME280;21602;55.670;37.578;2024-02-26T12:07:49;100072.19;;;2.40;60.32
35489;BME280;21602;55.670;37.578;2024-02-26T12:10:15;100068.72;;;2.40;60.50
35489;BME280;21602;55.670;37.578;2024-02-26T12:12:42;100066.44;;;2.53;60.44
35489;BME280;21602;55.670;37.578;2024-02-26T12:15:08;100054.25;;;2.60;60.91
35489;BME280;21602;55.670;37.578;2024-02-26T12:17:34;100069.91;;;2.53;60.75
35489;BME280;21602;55.670;37.578;2024-02-26T12:20:13;100069.72;;;2.39;60.48
35489;BME280;21602;55.670;37.578;2024-02-26T12:22:41;100068.06;;;2.29;60.63
35489;BME280;21602;55.670;37.578;2024-02-26T12:25:14;100065.09;;;2.33;61.15
35489;BME280;21602;55.670;37.578;2024-02-26T12:27:39;100080.75;;;2.34;60.73
35489;BME280;21602;55.670;37.578;2024-02-26T12:30:09;100080.91;;;2.33;60.59
35489;BME280;21602;55.670;37.578;2024-02-26T12:32:35;100084.22;;;2.35;60.39
35489;BME280;21602;55.670;37.578;2024-02-26T12:35:02;100077.78;;;2.37;60.60
35489;BME280;21602;55.670;37.578;2024-02-26T12:37:30;100080.91;;;2.41;60.21
35489;BME280;21602;55.670;37.578;2024-02-26T12:39:57;100075.16;;;2.29;59.99
35489;BME280;21602;55.670;37.578;2024-02-26T12:42:25;100069.88;;;2.29;60.18